createdAt,value
2022-11-28T00:01:41.147Z,6.35
2022-11-28T00:04:09.672Z,6.07
2022-11-28T00:06:38.972Z,6.43
2022-11-28T00:09:08.098Z,6.18
2022-11-28T00:11:36.169Z,7.15
2022-11-28T00:14:05.705Z,6.25
2022-11-28T00:16:33.887Z,6.13
2022-11-28T00:19:02.972Z,6.60
2022-11-28T00:21:31.313Z,6.47
2022-11-28T00:24:00.351Z,6.20
2022-11-28T00:26:31.251Z,6.55
2022-11-28T00:29:00.589Z,6.68
2022-11-28T00:31:32.873Z,6.90
2022-11-28T00:34:02.033Z,6.55
2022-11-28T00:36:31.172Z,6.45
2022-11-28T00:38:59.177Z,6.47
2022-11-28T00:41:29.588Z,6.60
2022-11-28T00:43:58.654Z,6.05
2022-11-28T00:46:26.953Z,5.85
2022-11-28T00:48:56.362Z,6.78
2022-11-28T00:51:25.844Z,5.55
2022-11-28T00:53:55.838Z,6.05
2022-11-28T00:56:25.463Z,5.85
2022-11-28T00:58:54.168Z,6.40
2022-11-28T01:01:24.327Z,5.88
2022-11-28T01:03:53.584Z,6.40
2022-11-28T01:06:25.200Z,6.38
2022-11-28T01:08:54.009Z,6.72
2022-11-28T01:11:22.563Z,6.38
2022-11-28T01:13:51.289Z,6.35
2022-11-28T01:16:19.427Z,6.00
2022-11-28T01:18:47.501Z,6.40
2022-11-28T01:21:15.797Z,7.25
2022-11-28T01:23:45.176Z,6.60
2022-11-28T01:26:18.424Z,6.20
2022-11-28T01:28:46.528Z,6.38
2022-11-28T01:31:17.859Z,6.80
2022-11-28T01:33:46.128Z,6.18
2022-11-28T01:36:15.473Z,6.72
2022-11-28T01:38:45.580Z,6.32
2022-11-28T01:41:14.204Z,6.53
2022-11-28T01:44:01.381Z,6.75
2022-11-28T01:46:30.166Z,5.97
2022-11-28T01:49:02.440Z,5.93
2022-11-28T01:51:31.338Z,6.35
2022-11-28T01:54:01.364Z,6.78
2022-11-28T01:56:36.185Z,7.25
2022-11-28T01:59:08.627Z,6.30
2022-11-28T02:01:36.946Z,6.78
2022-11-28T02:04:05.884Z,7.20
2022-11-28T02:06:34.312Z,6.45
2022-11-28T02:09:03.769Z,7.25
2022-11-28T02:11:53.366Z,6.97
2022-11-28T02:14:37.072Z,6.47
2022-11-28T02:17:13.511Z,7.03
2022-11-28T02:20:24.347Z,7.13
2022-11-28T02:23:00.636Z,7.15
2022-11-28T02:25:54.799Z,7.18
2022-11-28T02:29:02.830Z,7.18
2022-11-28T02:31:52.702Z,6.75
2022-11-28T02:34:29.824Z,7.38
2022-11-28T02:37:05.935Z,6.65
2022-11-28T02:39:40.816Z,7.53
2022-11-28T02:42:17.454Z,7.43
2022-11-28T02:44:53.464Z,7.28
2022-11-28T02:47:27.070Z,7.00
2022-11-28T02:50:00.118Z,7.10
2022-11-28T02:52:34.020Z,6.95
2022-11-28T02:55:03.054Z,7.28
2022-11-28T02:57:36.417Z,7.68
2022-11-28T03:00:20.335Z,7.07
2022-11-28T03:02:53.043Z,7.57
2022-11-28T03:05:28.515Z,6.97
2022-11-28T03:08:06.376Z,7.15
2022-11-28T03:10:41.779Z,7.93
2022-11-28T03:13:17.999Z,8.35
2022-11-28T03:15:55.494Z,8.07
2022-11-28T03:21:03.327Z,7.47
2022-11-28T03:23:38.320Z,7.75
2022-11-28T03:26:10.905Z,8.88
2022-11-28T03:28:45.291Z,7.22
2022-11-28T03:31:17.948Z,8.10
2022-11-28T03:33:51.111Z,7.63
2022-11-28T03:36:24.092Z,7.78
2022-11-28T03:38:57.928Z,7.40
2022-11-28T03:41:32.090Z,7.82
2022-11-28T03:44:02.140Z,7.45
2022-11-28T03:46:37.788Z,7.93
2022-11-28T03:49:09.575Z,7.45
2022-11-28T03:51:43.134Z,7.97
2022-11-28T03:54:15.233Z,7.53
2022-11-28T03:56:53.877Z,8.07
2022-11-28T03:59:27.024Z,7.55
2022-11-28T04:02:02.217Z,7.32
2022-11-28T04:04:36.958Z,7.57
2022-11-28T04:07:13.512Z,7.43
2022-11-28T04:09:46.797Z,7.13
2022-11-28T04:12:22.805Z,7.68
2022-11-28T04:14:55.270Z,7.55
2022-11-28T04:17:30.873Z,6.68
2022-11-28T04:20:07.234Z,7.05
2022-11-28T04:22:43.077Z,7.15
2022-11-28T04:25:15.103Z,7.32
2022-11-28T04:27:48.862Z,7.40
2022-11-28T04:30:17.425Z,7.75
2022-11-28T04:32:50.496Z,7.93
2022-11-28T04:35:24.159Z,7.40
2022-11-28T04:37:55.845Z,7.72
2022-11-28T04:40:26.968Z,7.50
2022-11-28T04:42:58.551Z,7.65
2022-11-28T04:45:31.708Z,6.72
2022-11-28T04:48:00.141Z,7.53
2022-11-28T04:50:33.509Z,6.75
2022-11-28T04:53:11.527Z,8.10
2022-11-28T04:55:45.405Z,6.97
2022-11-28T04:58:17.312Z,7.90
2022-11-28T05:00:46.749Z,7.80
2022-11-28T05:03:15.125Z,7.55
2022-11-28T05:05:46.014Z,8.32
2022-11-28T05:08:16.023Z,7.65
2022-11-28T05:10:44.304Z,7.38
2022-11-28T05:13:12.544Z,6.95
2022-11-28T05:15:40.980Z,7.65
2022-11-28T05:18:09.353Z,7.03
2022-11-28T05:20:39.033Z,7.45
2022-11-28T05:23:07.659Z,7.18
2022-11-28T05:25:39.039Z,7.57
2022-11-28T05:28:07.403Z,6.82
2022-11-28T05:30:35.570Z,7.70
2022-11-28T05:33:03.850Z,7.85
2022-11-28T05:35:32.092Z,7.55
2022-11-28T05:38:00.370Z,7.95
2022-11-28T05:40:28.697Z,7.80
2022-11-28T05:42:58.340Z,7.43
2022-11-28T05:45:26.612Z,6.90
2022-11-28T05:47:54.935Z,7.03
2022-11-28T05:50:23.107Z,7.90
2022-11-28T05:52:51.392Z,7.05
2022-11-28T05:55:19.875Z,8.05
2022-11-28T05:57:48.148Z,7.50
2022-11-28T06:00:18.873Z,7.50
2022-11-28T06:02:47.180Z,8.18
2022-11-28T06:05:35.143Z,7.80
2022-11-28T06:08:03.890Z,7.82
2022-11-28T06:10:32.440Z,8.25
2022-11-28T06:13:00.724Z,7.70
2022-11-28T06:15:34.903Z,8.32
2022-11-28T06:18:05.709Z,9.25
2022-11-28T06:20:36.067Z,8.90
2022-11-28T06:23:04.374Z,8.93
2022-11-28T06:25:32.640Z,9.13
2022-11-28T06:28:00.844Z,9.88
2022-11-28T06:30:30.562Z,9.52
2022-11-28T06:32:58.770Z,9.75
2022-11-28T06:35:27.031Z,9.35
2022-11-28T06:37:55.312Z,9.38
2022-11-28T06:40:23.534Z,10.57
2022-11-28T06:42:51.788Z,10.43
2022-11-28T06:45:20.053Z,11.05
2022-11-28T06:47:49.699Z,10.82
2022-11-28T06:50:18.042Z,10.65
2022-11-28T06:52:46.325Z,10.82
2022-11-28T06:55:14.603Z,10.73
2022-11-28T06:57:42.795Z,11.68
2022-11-28T07:00:11.971Z,10.93
2022-11-28T07:02:40.348Z,12.18
2022-11-28T07:05:10.884Z,12.18
2022-11-28T07:07:53.244Z,12.23
2022-11-28T07:10:23.135Z,11.90
2022-11-28T07:12:54.938Z,12.35
2022-11-28T07:15:23.593Z,11.77
2022-11-28T07:17:51.865Z,12.32
2022-11-28T07:20:21.841Z,12.35
2022-11-28T07:22:50.305Z,12.90
2022-11-28T07:25:18.638Z,13.35
2022-11-28T07:27:46.853Z,12.68
2022-11-28T07:30:15.868Z,13.23
2022-11-28T07:32:44.229Z,13.85
2022-11-28T07:35:12.564Z,13.15
2022-11-28T07:37:42.168Z,12.70
2022-11-28T07:40:10.846Z,14.07
2022-11-28T07:42:39.094Z,13.80
2022-11-28T07:45:08.264Z,13.38
2022-11-28T07:47:36.592Z,14.20
2022-11-28T07:50:05.683Z,12.38
2022-11-28T07:52:33.946Z,13.70
2022-11-28T07:55:03.597Z,14.23
2022-11-28T07:57:31.880Z,13.90
2022-11-28T08:00:00.175Z,13.57
2022-11-28T08:02:32.490Z,13.07
2022-11-28T08:05:01.024Z,14.13
2022-11-28T08:07:29.582Z,14.52
2022-11-28T08:09:57.942Z,13.88
2022-11-28T08:12:27.595Z,15.68
2022-11-28T08:14:55.947Z,15.02
2022-11-28T08:17:24.199Z,15.55
2022-11-28T08:19:52.474Z,15.63
2022-11-28T08:22:20.769Z,15.95
2022-11-28T08:24:49.048Z,16.40
2022-11-28T08:27:17.350Z,15.75
2022-11-28T08:29:50.527Z,16.23
2022-11-28T08:32:21.579Z,16.60
2022-11-28T08:34:49.832Z,16.83
2022-11-28T08:37:18.107Z,16.75
2022-11-28T08:39:46.569Z,15.30
2022-11-28T08:42:14.836Z,16.00
2022-11-28T08:44:43.132Z,15.40
2022-11-28T08:47:12.750Z,18.17
2022-11-28T08:49:41.244Z,22.08
2022-11-28T08:52:09.744Z,19.42
2022-11-28T08:54:38.123Z,20.02
2022-11-28T08:57:06.806Z,23.52
2022-11-28T08:59:35.035Z,38.17
2022-11-28T09:02:03.305Z,25.38
2022-11-28T09:04:32.966Z,22.63
2022-11-28T09:07:01.238Z,17.55
2022-11-28T09:09:32.904Z,35.05
2022-11-28T09:12:01.344Z,25.98
2022-11-28T09:14:29.651Z,21.27
2022-11-28T09:16:57.968Z,28.15
2022-11-28T09:19:26.345Z,16.27
2022-11-28T09:21:57.904Z,17.63
2022-11-28T09:24:26.576Z,16.13
2022-11-28T09:26:55.009Z,15.32
2022-11-28T09:29:23.954Z,16.38
2022-11-28T09:31:52.350Z,16.10
2022-11-28T09:34:21.446Z,17.30
2022-11-28T09:36:50.219Z,16.42
2022-11-28T09:39:19.852Z,16.60
2022-11-28T09:42:03.230Z,19.90
2022-11-28T09:44:38.025Z,17.88
2022-11-28T09:47:13.419Z,16.30
2022-11-28T09:49:47.626Z,15.00
2022-11-28T09:52:27.779Z,14.60
2022-11-28T09:55:06.180Z,14.75
2022-11-28T09:57:38.433Z,15.00
2022-11-28T10:00:12.165Z,15.60
2022-11-28T10:02:49.412Z,15.35
2022-11-28T10:05:24.410Z,14.68
2022-11-28T10:08:12.611Z,15.77
2022-11-28T10:10:50.813Z,15.05
2022-11-28T10:13:22.216Z,17.75
2022-11-28T10:15:59.153Z,15.73
2022-11-28T10:18:36.682Z,15.25
2022-11-28T10:21:11.434Z,14.50
2022-11-28T10:23:43.079Z,14.95
2022-11-28T10:26:22.160Z,14.95
2022-11-28T10:28:53.870Z,15.50
2022-11-28T10:31:32.791Z,14.40
2022-11-28T10:34:08.406Z,15.57
2022-11-28T10:36:51.854Z,15.05
2022-11-28T10:39:20.159Z,15.35
2022-11-28T10:42:12.550Z,14.90
2022-11-28T10:44:53.903Z,13.90
2022-11-28T10:47:31.925Z,14.40
2022-11-28T10:50:05.293Z,14.77
2022-11-28T10:52:44.235Z,14.13
2022-11-28T10:55:28.019Z,13.98
2022-11-28T10:58:06.089Z,13.38
2022-11-28T11:00:36.033Z,14.63
2022-11-28T11:03:05.999Z,13.77
2022-11-28T11:05:36.266Z,14.57
2022-11-28T11:08:12.289Z,13.90
2022-11-28T11:10:43.835Z,14.25
2022-11-28T11:13:17.497Z,14.45
2022-11-28T11:15:46.733Z,14.02
2022-11-28T11:18:26.767Z,19.23
2022-11-28T11:21:09.233Z,24.90
2022-11-28T11:23:38.627Z,15.50
2022-11-28T11:26:10.267Z,36.35
2022-11-28T11:28:45.547Z,30.05
2022-11-28T11:31:21.877Z,21.65
2022-11-28T11:33:53.221Z,19.15
2022-11-28T11:36:27.901Z,21.05
2022-11-28T11:39:25.400Z,19.23
2022-11-28T11:42:12.065Z,19.85
2022-11-28T11:44:41.922Z,17.17
2022-11-28T11:47:11.130Z,22.45
2022-11-28T11:49:42.896Z,32.28
2022-11-28T11:52:18.977Z,29.48
2022-11-28T11:55:08.799Z,23.83
2022-11-28T11:57:39.895Z,23.45
2022-11-28T12:00:17.045Z,19.88
2022-11-28T12:02:47.686Z,19.10
2022-11-28T12:05:19.746Z,20.80
2022-11-28T12:07:56.511Z,18.02
2022-11-28T12:10:27.659Z,16.30
2022-11-28T12:12:56.381Z,15.88
2022-11-28T12:15:40.228Z,22.58
2022-11-28T12:18:21.664Z,17.85
2022-11-28T12:21:04.701Z,29.52
2022-11-28T12:24:06.028Z,20.60
2022-11-28T12:26:42.620Z,25.13
2022-11-28T12:29:24.276Z,17.25
2022-11-28T12:32:06.455Z,20.48
2022-11-28T12:34:46.141Z,21.83
2022-11-28T12:37:42.540Z,22.58
2022-11-28T12:40:32.213Z,27.02
2022-11-28T12:43:13.383Z,17.27
2022-11-28T12:45:53.163Z,17.25
2022-11-28T12:49:00.229Z,15.52
2022-11-28T12:51:40.241Z,14.60
2022-11-28T12:54:32.151Z,16.35
2022-11-28T12:57:09.908Z,15.27
2022-11-28T12:59:45.188Z,18.13
2022-11-28T13:02:27.464Z,14.82
2022-11-28T13:05:14.697Z,21.27
2022-11-28T13:07:54.181Z,18.90
2022-11-28T13:10:28.371Z,16.48
2022-11-28T13:13:02.228Z,15.77
2022-11-28T13:15:44.894Z,33.42
2022-11-28T13:18:26.192Z,16.55
2022-11-28T13:21:01.697Z,24.85
2022-11-28T13:23:37.792Z,29.08
2022-11-28T13:26:12.199Z,23.45
2022-11-28T13:28:49.306Z,19.70
2022-11-28T13:31:24.430Z,17.05
2022-11-28T13:33:54.307Z,22.75
2022-11-28T13:39:38.017Z,19.02
2022-11-28T13:42:58.836Z,37.83
2022-11-28T13:45:26.679Z,20.63
2022-11-28T13:48:00.364Z,41.33
2022-11-28T13:51:00.787Z,23.65
2022-11-28T13:53:30.639Z,19.90
2022-11-28T13:56:22.893Z,20.20
2022-11-28T13:58:54.899Z,13.80
2022-11-28T14:01:25.835Z,16.58
2022-11-28T14:04:07.768Z,19.33
2022-11-28T14:06:44.727Z,17.67
2022-11-28T14:09:29.397Z,17.40
2022-11-28T14:12:15.099Z,28.77
2022-11-28T14:15:10.595Z,27.30
2022-11-28T14:17:54.052Z,14.07
2022-11-28T14:20:32.279Z,14.15
2022-11-28T14:23:20.013Z,13.73
2022-11-28T14:25:51.622Z,14.13
2022-11-28T14:28:27.144Z,13.40
2022-11-28T14:31:04.034Z,13.27
2022-11-28T14:33:38.110Z,13.63
2022-11-28T14:36:24.821Z,13.68
2022-11-28T14:39:12.131Z,14.35
2022-11-28T14:42:44.081Z,14.63
2022-11-28T14:45:42.940Z,13.95
2022-11-28T14:48:30.697Z,14.32
2022-11-28T14:51:02.543Z,14.30
2022-11-28T14:53:50.016Z,14.80
2022-11-28T14:56:28.013Z,15.27
2022-11-28T14:59:04.625Z,14.70
2022-11-28T15:01:47.235Z,14.70
2022-11-28T15:04:42.677Z,18.73
2022-11-28T15:07:24.298Z,25.48
2022-11-28T15:10:04.215Z,17.88
2022-11-28T15:12:47.590Z,17.50
2022-11-28T15:15:17.533Z,19.67
2022-11-28T15:17:52.579Z,20.65
2022-11-28T15:20:27.882Z,24.15
2022-11-28T15:22:56.245Z,18.58
2022-11-28T15:25:29.227Z,19.45
2022-11-28T15:28:13.423Z,19.02
2022-11-28T15:30:46.641Z,17.92
2022-11-28T15:33:16.512Z,21.10
2022-11-28T15:35:56.788Z,19.00
2022-11-28T15:38:25.900Z,18.20
2022-11-28T15:40:56.196Z,18.88
2022-11-28T15:43:25.331Z,32.67
2022-11-28T15:45:55.513Z,18.00
2022-11-28T15:48:39.002Z,17.85
2022-11-28T15:51:09.551Z,16.88
2022-11-28T15:53:42.353Z,22.33
2022-11-28T15:56:12.588Z,20.10
2022-11-28T15:58:41.960Z,28.63
2022-11-28T16:01:15.190Z,20.58
2022-11-28T16:03:51.128Z,20.30
2022-11-28T16:06:20.913Z,32.33
2022-11-28T16:08:53.004Z,25.73
2022-11-28T16:11:24.122Z,28.95
2022-11-28T16:13:55.349Z,23.17
2022-11-28T16:16:27.297Z,19.60
2022-11-28T16:19:00.000Z,20.27
2022-11-28T16:21:31.374Z,29.60
2022-11-28T16:24:00.754Z,32.33
2022-11-28T16:26:33.624Z,25.48
2022-11-28T16:29:12.766Z,27.05
2022-11-28T16:31:41.967Z,37.97
2022-11-28T16:34:15.007Z,34.25
2022-11-28T16:36:51.165Z,19.63
2022-11-28T16:39:19.770Z,21.30
2022-11-28T16:41:52.033Z,26.30
2022-11-28T16:44:22.549Z,26.00
2022-11-28T16:46:54.097Z,22.50
2022-11-28T16:49:38.089Z,24.33
2022-11-28T16:52:42.337Z,25.08
2022-11-28T16:55:42.003Z,24.42
2022-11-28T16:58:16.509Z,32.55
2022-11-28T17:00:48.048Z,27.08
2022-11-28T17:03:51.691Z,22.42
2022-11-28T17:06:24.443Z,29.13
2022-11-28T17:08:52.875Z,25.95
2022-11-28T17:11:23.763Z,24.95
2022-11-28T17:13:52.426Z,21.25
2022-11-28T17:16:24.100Z,25.67
2022-11-28T17:18:52.839Z,23.73
2022-11-28T17:21:32.301Z,21.20
2022-11-28T17:24:00.923Z,22.95
2022-11-28T17:26:29.213Z,19.88
2022-11-28T17:28:58.673Z,21.95
2022-11-28T17:31:26.790Z,23.48
2022-11-28T17:33:54.945Z,41.75
2022-11-28T17:36:24.330Z,19.90
2022-11-28T17:38:52.381Z,24.10
2022-11-28T17:41:23.251Z,28.20
2022-11-28T17:43:51.287Z,24.33
2022-11-28T17:46:21.499Z,31.75
2022-11-28T17:48:49.545Z,26.88
2022-11-28T17:51:17.949Z,21.50
2022-11-28T17:53:47.631Z,21.45
2022-11-28T17:56:15.723Z,23.20
2022-11-28T17:58:44.908Z,20.92
2022-11-28T18:01:16.512Z,24.67
2022-11-28T18:03:44.662Z,20.55
2022-11-28T18:06:17.563Z,22.17
2022-11-28T18:08:47.861Z,23.23
2022-11-28T18:11:16.996Z,21.80
2022-11-28T18:13:45.599Z,21.88
2022-11-28T18:16:17.102Z,21.60
2022-11-28T18:18:45.880Z,20.90
2022-11-28T18:21:15.734Z,20.48
2022-11-28T18:23:46.230Z,21.40
2022-11-28T18:26:18.307Z,21.20
2022-11-28T18:28:47.388Z,24.27
2022-11-28T18:31:18.816Z,21.30
2022-11-28T18:33:47.786Z,20.38
2022-11-28T18:36:18.117Z,19.58
2022-11-28T18:38:46.643Z,22.10
2022-11-28T18:41:17.623Z,20.65
2022-11-28T18:43:46.136Z,19.77
2022-11-28T18:46:16.003Z,19.48
2022-11-28T18:48:46.188Z,20.10
2022-11-28T18:51:15.157Z,19.38
2022-11-28T18:53:44.953Z,20.13
2022-11-28T18:56:15.632Z,20.08
2022-11-28T18:58:45.738Z,18.80
2022-11-28T19:01:16.994Z,20.70
2022-11-28T19:03:49.205Z,21.25
2022-11-28T19:06:19.717Z,21.48
2022-11-28T19:08:48.648Z,22.55
2022-11-28T19:11:18.558Z,21.23
2022-11-28T19:13:51.543Z,20.77
2022-11-28T19:16:21.631Z,21.95
2022-11-28T19:18:50.037Z,21.25
2022-11-28T19:21:20.841Z,22.30
2022-11-28T19:23:49.323Z,22.30
2022-11-28T19:26:20.750Z,24.15
2022-11-28T19:28:49.014Z,28.85
2022-11-28T19:31:20.354Z,36.47
2022-11-28T19:34:00.455Z,22.90
2022-11-28T19:36:31.811Z,23.23
2022-11-28T19:39:00.424Z,21.88
2022-11-28T19:41:31.016Z,24.17
2022-11-28T19:43:59.245Z,26.63
2022-11-28T19:46:35.047Z,28.15
2022-11-28T19:49:04.808Z,27.45
2022-11-28T19:51:33.009Z,24.70
2022-11-28T19:54:03.518Z,24.05
2022-11-28T19:56:34.333Z,21.63
2022-11-28T19:59:03.580Z,22.58
2022-11-28T20:01:31.850Z,22.48
2022-11-28T20:04:00.375Z,23.90
2022-11-28T20:06:31.103Z,23.00
2022-11-28T20:09:01.276Z,22.20
2022-11-28T20:11:34.131Z,23.33
2022-11-28T20:14:05.057Z,21.70
2022-11-28T20:16:33.754Z,22.55
2022-11-28T20:19:02.704Z,22.98
2022-11-28T20:21:32.009Z,22.55
2022-11-28T20:24:04.430Z,23.95
2022-11-28T20:26:39.242Z,22.73
2022-11-28T20:29:07.780Z,22.98
2022-11-28T20:31:37.986Z,23.95
2022-11-28T20:34:06.616Z,24.65
2022-11-28T20:36:36.274Z,24.60
2022-11-28T20:39:05.739Z,31.98
2022-11-28T20:41:33.962Z,53.50
2022-11-28T20:44:03.560Z,31.90
2022-11-28T20:46:35.464Z,46.33
2022-11-28T20:49:06.359Z,52.08
2022-11-28T20:51:36.714Z,58.92
2022-11-28T20:54:06.717Z,69.57
2022-11-28T20:57:05.208Z,28.88
2022-11-28T20:59:28.820Z,49.70
2022-11-28T21:01:56.947Z,68.72
2022-11-28T21:04:25.028Z,65.50
2022-11-28T21:06:53.176Z,49.15
2022-11-28T21:09:21.212Z,37.38
2022-11-28T21:11:57.275Z,68.13
2022-11-28T21:14:30.972Z,41.42
2022-11-28T21:16:59.754Z,42.55
2022-11-28T21:19:28.228Z,53.30
2022-11-28T21:21:56.515Z,40.03
2022-11-28T21:24:24.663Z,47.28
2022-11-28T21:26:54.271Z,55.60
2022-11-28T21:29:24.157Z,56.15
2022-11-28T21:31:54.533Z,78.75
2022-11-28T21:34:22.913Z,79.05
2022-11-28T21:36:51.208Z,51.35
2022-11-28T21:39:22.028Z,56.50
2022-11-28T21:41:51.993Z,47.00
2022-11-28T21:44:20.201Z,48.60
2022-11-28T21:46:48.181Z,45.65
2022-11-28T21:49:18.620Z,38.72
2022-11-28T21:51:46.794Z,36.35
2022-11-28T21:54:15.355Z,33.67
2022-11-28T21:56:45.895Z,36.65
2022-11-28T21:59:13.927Z,38.20
2022-11-28T22:01:42.348Z,33.15
2022-11-28T22:04:11.469Z,33.25
2022-11-28T22:06:41.843Z,43.10
2022-11-28T22:09:10.645Z,29.77
2022-11-28T22:11:40.729Z,50.72
2022-11-28T22:14:09.034Z,50.65
2022-11-28T22:16:38.177Z,45.95
2022-11-28T22:19:06.427Z,41.30
2022-11-28T22:21:53.926Z,38.67
2022-11-28T22:24:25.452Z,44.83
2022-11-28T22:26:56.244Z,38.40
2022-11-28T22:29:25.231Z,38.28
2022-11-28T22:31:55.031Z,32.88
2022-11-28T22:34:24.260Z,33.83
2022-11-28T22:36:52.451Z,33.00
2022-11-28T22:39:21.726Z,39.33
2022-11-28T22:41:51.425Z,40.28
2022-11-28T22:44:20.938Z,31.63
2022-11-28T22:46:49.030Z,38.35
2022-11-28T22:49:17.232Z,32.03
2022-11-28T22:51:45.489Z,36.92
2022-11-28T22:54:14.764Z,31.98
2022-11-28T22:56:42.765Z,39.20
2022-11-28T22:59:15.411Z,34.78
2022-11-28T23:01:44.346Z,32.33
2022-11-28T23:04:13.189Z,40.97
2022-11-28T23:06:41.393Z,38.35
2022-11-28T23:09:11.559Z,35.40
2022-11-28T23:11:41.210Z,35.75
2022-11-28T23:14:11.489Z,29.50
2022-11-28T23:16:42.700Z,31.27
2022-11-28T23:19:14.113Z,28.48
2022-11-28T23:21:43.857Z,30.17
2022-11-28T23:24:14.909Z,32.25
2022-11-28T23:26:44.785Z,35.35
2022-11-28T23:29:14.880Z,32.95
2022-11-28T23:31:46.837Z,31.55
2022-11-28T23:34:16.136Z,32.20
2022-11-28T23:36:46.177Z,32.47
2022-11-28T23:39:16.639Z,35.28
2022-11-28T23:41:45.258Z,34.88
2022-11-28T23:44:14.318Z,32.65
2022-11-28T23:46:44.462Z,29.35
2022-11-28T23:49:13.078Z,26.42
2022-11-28T23:51:42.279Z,29.92
2022-11-28T23:54:11.930Z,34.78
2022-11-28T23:56:41.190Z,27.15
2022-11-28T23:59:10.373Z,35.67
